createdAt,value
2022-12-18T00:02:13.400Z,64.86
2022-12-18T00:04:39.869Z,64.50
2022-12-18T00:07:06.273Z,64.81
2022-12-18T00:09:39.545Z,64.98
2022-12-18T00:14:42.974Z,64.61
2022-12-18T00:17:12.406Z,64.41
2022-12-18T00:19:38.740Z,64.45
2022-12-18T00:22:05.948Z,64.46
2022-12-18T00:24:32.424Z,64.79
2022-12-18T00:26:58.892Z,64.41
2022-12-18T00:29:25.297Z,64.34
2022-12-18T00:31:51.720Z,64.72
2022-12-18T00:34:18.163Z,64.53
2022-12-18T00:36:44.600Z,65.08
2022-12-18T00:39:13.133Z,64.49
2022-12-18T00:41:58.661Z,64.56
2022-12-18T00:44:25.587Z,64.86
2022-12-18T00:46:51.937Z,64.70
2022-12-18T00:49:19.947Z,64.83
2022-12-18T00:51:46.996Z,64.84
2022-12-18T00:54:13.989Z,64.67
2022-12-18T00:56:48.239Z,64.63
2022-12-18T00:59:15.076Z,64.69
2022-12-18T01:01:41.561Z,64.20
2022-12-18T01:04:08.236Z,64.52
2022-12-18T01:06:34.607Z,64.69
2022-12-18T01:09:01.811Z,64.82
2022-12-18T01:11:28.162Z,64.65
2022-12-18T01:13:55.115Z,64.75
2022-12-18T01:16:22.938Z,64.32
2022-12-18T01:18:52.966Z,64.31
2022-12-18T01:21:19.713Z,64.06
2022-12-18T01:23:46.754Z,64.36
2022-12-18T01:26:15.874Z,64.32
2022-12-18T01:28:42.810Z,64.09
2022-12-18T01:31:20.081Z,64.28
2022-12-18T01:33:48.405Z,63.97
2022-12-18T01:36:32.736Z,63.98
2022-12-18T01:39:06.418Z,64.33
2022-12-18T01:42:15.480Z,64.09
2022-12-18T01:45:14.255Z,63.78
2022-12-18T01:47:45.410Z,63.99
2022-12-18T01:50:16.749Z,64.33
2022-12-18T01:52:47.696Z,63.85
2022-12-18T01:55:17.255Z,64.22
2022-12-18T01:57:43.786Z,64.77
2022-12-18T02:00:21.011Z,64.27
2022-12-18T02:02:48.039Z,64.13
2022-12-18T02:05:34.059Z,63.90
2022-12-18T02:08:13.955Z,63.79
2022-12-18T02:11:19.355Z,63.99
2022-12-18T02:14:20.087Z,63.98
2022-12-18T02:17:26.167Z,63.92
2022-12-18T02:20:17.276Z,63.96
2022-12-18T02:22:52.317Z,63.70
2022-12-18T02:25:40.041Z,63.96
2022-12-18T02:28:12.541Z,64.13
2022-12-18T02:30:42.113Z,63.95
2022-12-18T02:33:12.851Z,63.96
2022-12-18T02:35:41.798Z,63.70
2022-12-18T02:38:08.702Z,63.88
2022-12-18T02:40:38.099Z,63.56
2022-12-18T02:43:14.013Z,63.96
2022-12-18T02:45:59.244Z,64.09
2022-12-18T02:48:34.064Z,64.17
2022-12-18T02:51:19.533Z,63.76
2022-12-18T02:53:57.136Z,63.87
2022-12-18T02:56:36.113Z,63.35
2022-12-18T02:59:14.783Z,63.76
2022-12-18T03:01:56.838Z,63.79
2022-12-18T03:04:31.553Z,63.96
2022-12-18T03:07:04.194Z,63.37
2022-12-18T03:09:44.437Z,63.55
2022-12-18T03:12:26.306Z,63.28
2022-12-18T03:15:18.055Z,63.65
2022-12-18T03:17:56.522Z,63.74
2022-12-18T03:20:27.939Z,63.02
2022-12-18T03:23:06.059Z,62.89
2022-12-18T03:25:35.959Z,63.37
2022-12-18T03:28:04.136Z,63.72
2022-12-18T03:30:33.570Z,63.31
2022-12-18T03:33:16.237Z,63.85
2022-12-18T03:35:45.575Z,63.79
2022-12-18T03:38:13.765Z,63.78
2022-12-18T03:40:51.114Z,63.63
2022-12-18T03:43:37.641Z,63.73
2022-12-18T03:46:34.650Z,63.84
2022-12-18T03:49:24.379Z,64.05
2022-12-18T03:52:05.633Z,63.87
2022-12-18T03:54:34.792Z,64.07
2022-12-18T03:57:19.196Z,63.81
2022-12-18T03:59:49.574Z,63.90
2022-12-18T04:02:18.785Z,64.05
2022-12-18T04:04:51.515Z,63.66
2022-12-18T04:07:19.195Z,63.65
2022-12-18T04:09:46.993Z,63.78
2022-12-18T04:12:14.069Z,63.95
2022-12-18T04:14:40.722Z,63.55
2022-12-18T04:17:08.862Z,63.91
2022-12-18T04:19:35.369Z,63.82
2022-12-18T04:22:02.951Z,63.38
2022-12-18T04:24:34.634Z,63.79
2022-12-18T04:27:10.635Z,63.55
2022-12-18T04:29:43.062Z,63.40
2022-12-18T04:32:10.219Z,63.85
2022-12-18T04:34:37.795Z,63.70
2022-12-18T04:37:05.166Z,63.53
2022-12-18T04:39:32.584Z,63.69
2022-12-18T04:42:04.374Z,63.61
2022-12-18T04:44:30.803Z,63.17
2022-12-18T04:46:57.143Z,63.67
2022-12-18T04:49:23.743Z,63.51
2022-12-18T04:51:50.186Z,63.84
2022-12-18T04:54:16.585Z,63.53
2022-12-18T04:56:43.060Z,63.74
2022-12-18T04:59:09.411Z,63.99
2022-12-18T05:01:35.968Z,63.76
2022-12-18T05:04:03.726Z,63.42
2022-12-18T05:06:30.324Z,63.73
2022-12-18T05:08:56.847Z,63.94
2022-12-18T05:11:23.518Z,63.59
2022-12-18T05:13:49.867Z,63.64
2022-12-18T05:16:16.308Z,63.68
2022-12-18T05:18:43.002Z,64.30
2022-12-18T05:21:09.853Z,63.66
2022-12-18T05:23:37.026Z,63.72
2022-12-18T05:26:06.313Z,63.89
2022-12-18T05:28:36.537Z,63.41
2022-12-18T05:31:05.080Z,64.18
2022-12-18T05:33:33.792Z,64.61
2022-12-18T05:36:02.277Z,64.05
2022-12-18T05:38:29.957Z,63.94
2022-12-18T05:40:57.133Z,63.92
2022-12-18T05:43:25.471Z,63.74
2022-12-18T05:45:53.548Z,63.74
2022-12-18T05:48:20.586Z,63.81
2022-12-18T05:50:48.567Z,64.12
2022-12-18T05:53:16.691Z,64.10
2022-12-18T05:55:44.703Z,63.86
2022-12-18T05:58:12.587Z,63.72
2022-12-18T06:00:40.797Z,63.72
2022-12-18T06:03:08.892Z,63.93
2022-12-18T06:05:37.719Z,63.99
2022-12-18T06:08:04.528Z,63.96
2022-12-18T06:10:31.374Z,63.85
2022-12-18T06:12:57.855Z,63.88
2022-12-18T06:15:24.222Z,64.08
2022-12-18T06:17:50.812Z,63.89
2022-12-18T06:20:17.553Z,64.28
2022-12-18T06:22:44.588Z,64.03
2022-12-18T06:25:11.270Z,63.82
2022-12-18T06:27:38.373Z,63.96
2022-12-18T06:30:05.846Z,64.06
2022-12-18T06:32:32.276Z,63.70
2022-12-18T06:34:58.669Z,63.58
2022-12-18T06:37:26.976Z,63.48
2022-12-18T06:39:54.301Z,63.41
2022-12-18T06:42:20.765Z,63.67
2022-12-18T06:44:47.104Z,63.68
2022-12-18T06:47:13.542Z,63.72
2022-12-18T06:49:39.886Z,63.46
2022-12-18T06:52:06.292Z,63.79
2022-12-18T06:54:32.760Z,63.34
2022-12-18T06:56:59.236Z,63.67
2022-12-18T06:59:25.843Z,63.49
2022-12-18T07:01:53.037Z,63.70
2022-12-18T07:04:19.486Z,63.75
2022-12-18T07:06:46.077Z,64.28
2022-12-18T07:09:12.425Z,64.16
2022-12-18T07:11:38.890Z,64.16
2022-12-18T07:14:05.695Z,64.00
2022-12-18T07:16:32.083Z,64.28
2022-12-18T07:18:58.486Z,64.04
2022-12-18T07:21:26.743Z,63.90
2022-12-18T07:23:53.434Z,64.02
2022-12-18T07:26:21.918Z,64.53
2022-12-18T07:28:49.357Z,64.15
2022-12-18T07:31:19.557Z,64.11
2022-12-18T07:33:48.842Z,64.08
2022-12-18T07:36:15.554Z,64.23
2022-12-18T07:38:42.170Z,64.28
2022-12-18T07:41:11.302Z,64.19
2022-12-18T07:43:39.291Z,64.13
2022-12-18T07:46:06.463Z,63.96
2022-12-18T07:48:33.065Z,63.74
2022-12-18T07:51:09.197Z,63.72
2022-12-18T07:53:39.164Z,63.69
2022-12-18T07:58:55.778Z,63.77
2022-12-18T08:01:22.310Z,63.95
2022-12-18T08:03:48.903Z,63.87
2022-12-18T08:06:16.738Z,63.84
2022-12-18T08:08:43.397Z,63.97
2022-12-18T08:11:09.836Z,64.03
2022-12-18T08:13:36.324Z,64.37
2022-12-18T08:16:05.611Z,64.37
2022-12-18T08:18:34.730Z,64.26
2022-12-18T08:21:12.370Z,64.33
2022-12-18T08:23:42.925Z,64.11
2022-12-18T08:26:11.168Z,64.18
2022-12-18T08:28:37.553Z,64.21
2022-12-18T08:31:04.828Z,63.75
2022-12-18T08:33:31.492Z,63.90
2022-12-18T08:36:00.129Z,64.17
2022-12-18T08:38:27.516Z,64.42
2022-12-18T08:41:01.327Z,64.20
2022-12-18T08:43:47.026Z,64.09
2022-12-18T08:46:13.859Z,63.94
2022-12-18T08:48:40.266Z,63.95
2022-12-18T08:51:06.648Z,63.43
2022-12-18T08:53:35.815Z,63.39
2022-12-18T08:56:03.050Z,63.13
2022-12-18T08:58:29.897Z,63.49
2022-12-18T09:01:02.813Z,63.02
2022-12-18T09:03:29.392Z,63.47
2022-12-18T09:05:55.854Z,63.62
2022-12-18T09:08:22.255Z,63.48
2022-12-18T09:10:50.522Z,63.25
2022-12-18T09:13:18.301Z,62.89
2022-12-18T09:15:53.203Z,63.07
2022-12-18T09:18:21.281Z,63.12
2022-12-18T09:20:47.924Z,63.53
2022-12-18T09:23:14.836Z,62.96
2022-12-18T09:25:42.582Z,62.83
2022-12-18T09:28:14.296Z,63.02
2022-12-18T09:30:45.199Z,63.38
2022-12-18T09:33:11.872Z,63.44
2022-12-18T09:35:41.465Z,63.21
2022-12-18T09:38:12.524Z,62.80
2022-12-18T09:40:52.149Z,62.05
2022-12-18T09:43:28.065Z,62.47
2022-12-18T09:46:03.292Z,62.78
2022-12-18T09:48:35.698Z,62.52
2022-12-18T09:51:10.017Z,62.34
2022-12-18T09:53:41.594Z,62.24
2022-12-18T09:56:16.798Z,61.68
2022-12-18T09:58:51.146Z,61.45
2022-12-18T10:01:23.699Z,61.76
2022-12-18T10:03:51.354Z,61.43
2022-12-18T10:06:43.726Z,60.82
2022-12-18T10:09:18.374Z,61.09
2022-12-18T10:11:55.276Z,61.55
2022-12-18T10:14:45.740Z,61.07
2022-12-18T10:17:36.734Z,61.31
2022-12-18T10:20:11.372Z,60.67
2022-12-18T10:22:46.761Z,59.47
2022-12-18T10:25:39.682Z,58.64
2022-12-18T10:28:15.533Z,56.22
2022-12-18T10:30:43.512Z,56.20
2022-12-18T10:33:16.835Z,55.73
2022-12-18T10:35:45.302Z,56.28
2022-12-18T10:38:14.591Z,56.62
2022-12-18T10:41:00.045Z,56.20
2022-12-18T10:43:37.059Z,56.93
2022-12-18T10:46:09.450Z,56.69
2022-12-18T10:48:48.140Z,56.91
2022-12-18T10:51:40.864Z,56.22
2022-12-18T10:54:15.974Z,56.64
2022-12-18T10:56:43.161Z,56.74
2022-12-18T10:59:12.961Z,56.49
2022-12-18T11:01:59.282Z,56.90
2022-12-18T11:04:28.547Z,57.28
2022-12-18T11:07:06.912Z,57.33
2022-12-18T11:09:40.790Z,56.39
2022-12-18T11:12:19.232Z,56.03
2022-12-18T11:14:51.684Z,57.08
2022-12-18T11:17:35.926Z,56.41
2022-12-18T11:20:07.909Z,56.56
2022-12-18T11:22:39.189Z,56.70
2022-12-18T11:28:04.790Z,55.46
2022-12-18T11:30:36.556Z,55.63
2022-12-18T11:33:07.785Z,55.41
2022-12-18T11:35:40.981Z,55.35
2022-12-18T11:38:19.484Z,55.35
2022-12-18T11:40:52.491Z,54.77
2022-12-18T11:43:28.656Z,55.65
2022-12-18T11:46:05.574Z,55.83
2022-12-18T11:48:39.090Z,56.31
2022-12-18T11:51:14.906Z,55.93
2022-12-18T11:53:41.321Z,56.52
2022-12-18T11:56:30.681Z,56.35
2022-12-18T11:59:26.592Z,55.39
2022-12-18T12:01:59.727Z,54.57
2022-12-18T12:04:32.857Z,53.81
2022-12-18T12:07:08.464Z,53.33
2022-12-18T12:10:02.250Z,53.76
2022-12-18T12:12:58.909Z,53.48
2022-12-18T12:15:44.959Z,53.56
2022-12-18T12:18:20.458Z,52.58
2022-12-18T12:20:55.938Z,52.89
2022-12-18T12:23:44.661Z,53.98
2022-12-18T12:26:16.716Z,54.06
2022-12-18T12:29:04.393Z,54.01
2022-12-18T12:31:52.565Z,54.43
2022-12-18T12:34:43.198Z,54.71
2022-12-18T12:37:34.155Z,54.07
2022-12-18T12:40:11.007Z,53.80
2022-12-18T12:43:15.803Z,54.60
2022-12-18T12:46:05.911Z,54.79
2022-12-18T12:48:43.317Z,54.80
2022-12-18T12:51:21.863Z,55.43
2022-12-18T12:53:49.694Z,55.56
2022-12-18T12:56:20.071Z,55.15
2022-12-18T12:59:14.186Z,55.07
2022-12-18T13:01:59.233Z,55.50
2022-12-18T13:05:02.274Z,54.85
2022-12-18T13:07:51.067Z,54.54
2022-12-18T13:10:17.849Z,54.75
2022-12-18T13:13:47.049Z,54.94
2022-12-18T13:16:08.422Z,55.08
2022-12-18T13:18:35.613Z,54.11
2022-12-18T13:21:03.838Z,53.64
2022-12-18T13:23:35.222Z,54.65
2022-12-18T13:26:09.008Z,54.45
2022-12-18T13:28:47.742Z,54.66
2022-12-18T13:34:32.223Z,54.96
2022-12-18T13:37:33.709Z,55.07
2022-12-18T13:40:00.156Z,55.70
2022-12-18T13:42:57.592Z,55.65
2022-12-18T13:45:38.087Z,55.72
2022-12-18T13:48:12.034Z,56.27
2022-12-18T13:50:39.807Z,55.90
2022-12-18T13:53:06.287Z,55.94
2022-12-18T13:55:33.154Z,56.41
2022-12-18T13:58:06.845Z,56.42
2022-12-18T14:00:34.140Z,56.68
2022-12-18T14:03:01.315Z,56.34
2022-12-18T14:05:32.553Z,56.26
2022-12-18T14:08:14.937Z,57.24
2022-12-18T14:10:48.700Z,56.66
2022-12-18T14:13:42.719Z,56.94
2022-12-18T14:16:15.116Z,57.43
2022-12-18T14:18:45.332Z,57.94
2022-12-18T14:21:20.768Z,57.80
2022-12-18T14:23:47.487Z,57.81
2022-12-18T14:26:29.828Z,58.39
2022-12-18T14:29:04.502Z,58.04
2022-12-18T14:31:32.620Z,58.56
2022-12-18T14:33:58.986Z,58.65
2022-12-18T14:36:28.267Z,58.83
2022-12-18T14:38:56.960Z,58.89
2022-12-18T14:41:25.002Z,59.17
2022-12-18T14:43:53.756Z,58.70
2022-12-18T14:46:40.500Z,58.94
2022-12-18T14:49:34.162Z,59.57
2022-12-18T14:52:06.656Z,59.14
2022-12-18T14:54:39.206Z,59.22
2022-12-18T14:57:19.209Z,58.94
2022-12-18T14:59:45.683Z,59.55
2022-12-18T15:02:22.510Z,60.44
2022-12-18T15:05:06.134Z,60.29
2022-12-18T15:07:47.913Z,60.24
2022-12-18T15:10:17.715Z,60.23
2022-12-18T15:12:46.518Z,60.93
2022-12-18T15:15:35.227Z,60.08
2022-12-18T15:18:09.524Z,60.85
2022-12-18T15:20:42.993Z,60.82
2022-12-18T15:23:22.689Z,61.07
2022-12-18T15:26:06.078Z,60.48
2022-12-18T15:28:37.841Z,61.03
2022-12-18T15:31:32.991Z,60.79
2022-12-18T15:34:00.371Z,61.06
2022-12-18T15:36:29.018Z,61.07
2022-12-18T15:39:04.049Z,61.01
2022-12-18T15:41:34.854Z,61.36
2022-12-18T15:44:03.597Z,60.93
2022-12-18T15:46:31.628Z,61.14
2022-12-18T15:49:02.115Z,61.36
2022-12-18T15:51:39.457Z,61.69
2022-12-18T15:54:10.675Z,61.35
2022-12-18T15:56:56.060Z,61.00
2022-12-18T15:59:24.069Z,61.51
2022-12-18T16:01:53.821Z,61.64
2022-12-18T16:04:22.285Z,61.54
2022-12-18T16:09:36.486Z,61.86
2022-12-18T16:12:03.144Z,61.70
2022-12-18T16:14:30.788Z,61.93
2022-12-18T16:17:02.815Z,61.73
2022-12-18T16:19:30.309Z,61.83
2022-12-18T16:21:58.517Z,61.73
2022-12-18T16:24:27.883Z,62.16
2022-12-18T16:26:55.270Z,61.85
2022-12-18T16:29:28.541Z,61.74
2022-12-18T16:31:55.969Z,61.33
2022-12-18T16:34:29.266Z,62.00
2022-12-18T16:37:03.297Z,61.61
2022-12-18T16:39:32.886Z,61.55
2022-12-18T16:42:00.042Z,62.35
2022-12-18T16:44:28.734Z,62.14
2022-12-18T16:46:55.427Z,61.80
2022-12-18T16:49:24.638Z,61.83
2022-12-18T16:51:51.128Z,61.57
2022-12-18T16:54:19.616Z,61.40
2022-12-18T16:56:49.695Z,61.96
2022-12-18T16:59:16.370Z,61.88
2022-12-18T17:01:42.962Z,61.36
2022-12-18T17:04:09.653Z,61.68
2022-12-18T17:06:40.815Z,61.99
2022-12-18T17:09:09.470Z,61.88
2022-12-18T17:11:36.459Z,62.18
2022-12-18T17:14:07.967Z,62.00
2022-12-18T17:16:34.489Z,62.14
2022-12-18T17:19:01.926Z,61.79
2022-12-18T17:21:29.009Z,61.53
2022-12-18T17:23:55.385Z,61.72
2022-12-18T17:26:21.890Z,61.71
2022-12-18T17:28:48.227Z,61.16
2022-12-18T17:31:19.684Z,61.33
2022-12-18T17:33:46.732Z,62.04
2022-12-18T17:36:13.907Z,61.62
2022-12-18T17:38:43.423Z,61.80
2022-12-18T17:41:11.535Z,62.23
2022-12-18T17:43:47.802Z,61.59
2022-12-18T17:46:14.989Z,61.32
2022-12-18T17:48:41.748Z,61.70
2022-12-18T17:51:09.866Z,61.55
2022-12-18T17:53:39.550Z,61.92
2022-12-18T17:56:08.477Z,61.87
2022-12-18T17:58:37.371Z,61.63
2022-12-18T18:01:06.630Z,61.62
2022-12-18T18:03:34.276Z,62.02
2022-12-18T18:06:02.405Z,61.95
2022-12-18T18:08:29.451Z,61.94
2022-12-18T18:11:15.888Z,61.47
2022-12-18T18:14:00.686Z,62.18
2022-12-18T18:16:37.751Z,62.18
2022-12-18T18:19:08.249Z,61.83
2022-12-18T18:21:38.000Z,61.78
2022-12-18T18:24:05.353Z,62.32
2022-12-18T18:26:33.488Z,61.81
2022-12-18T18:29:02.474Z,62.24
2022-12-18T18:31:31.885Z,62.05
2022-12-18T18:33:58.542Z,62.22
2022-12-18T18:36:25.519Z,62.18
2022-12-18T18:38:52.054Z,61.91
2022-12-18T18:41:19.254Z,62.40
2022-12-18T18:43:46.057Z,61.94
2022-12-18T18:46:14.627Z,62.49
2022-12-18T18:48:41.772Z,61.46
2022-12-18T18:51:15.310Z,62.31
2022-12-18T18:53:49.690Z,62.45
2022-12-18T18:56:56.465Z,62.13
2022-12-18T18:59:04.723Z,61.63
2022-12-18T19:01:31.606Z,62.02
2022-12-18T19:03:58.175Z,61.65
2022-12-18T19:06:27.220Z,62.24
2022-12-18T19:08:56.030Z,61.56
2022-12-18T19:11:42.019Z,62.08
2022-12-18T19:14:10.336Z,61.76
2022-12-18T19:16:37.649Z,61.69
2022-12-18T19:19:04.774Z,61.99
2022-12-18T19:21:34.117Z,61.74
2022-12-18T19:24:02.731Z,61.40
2022-12-18T19:26:30.213Z,61.87
2022-12-18T19:29:08.329Z,61.46
2022-12-18T19:31:36.927Z,62.06
2022-12-18T19:34:07.947Z,61.81
2022-12-18T19:36:37.486Z,62.08
2022-12-18T19:39:10.305Z,61.47
2022-12-18T19:41:37.116Z,62.31
2022-12-18T19:44:07.388Z,61.78
2022-12-18T19:46:35.817Z,61.66
2022-12-18T19:49:02.756Z,62.22
2022-12-18T19:51:31.387Z,61.36
2022-12-18T19:54:00.529Z,61.94
2022-12-18T19:56:35.168Z,61.55
2022-12-18T19:59:03.526Z,62.46
2022-12-18T20:01:34.272Z,62.00
2022-12-18T20:04:03.954Z,62.37
2022-12-18T20:06:49.764Z,62.12
2022-12-18T20:09:16.547Z,62.11
2022-12-18T20:11:43.255Z,61.55
2022-12-18T20:14:14.426Z,61.94
2022-12-18T20:16:43.544Z,61.85
2022-12-18T20:19:12.014Z,62.27
2022-12-18T20:21:38.894Z,62.41
2022-12-18T20:24:06.903Z,61.87
2022-12-18T20:26:33.338Z,61.49
2022-12-18T20:28:59.858Z,61.28
2022-12-18T20:31:26.338Z,61.29
2022-12-18T20:33:53.371Z,61.87
2022-12-18T20:36:25.824Z,61.78
2022-12-18T20:38:59.309Z,61.35
2022-12-18T20:41:30.581Z,61.90
2022-12-18T20:44:04.897Z,62.07
2022-12-18T20:46:31.353Z,61.24
2022-12-18T20:48:58.089Z,61.27
2022-12-18T20:51:26.594Z,61.46
2022-12-18T20:53:54.908Z,61.25
2022-12-18T20:56:22.383Z,61.07
2022-12-18T20:58:54.958Z,61.13
2022-12-18T21:01:22.791Z,61.25
2022-12-18T21:03:49.869Z,61.26
2022-12-18T21:06:18.821Z,61.35
2022-12-18T21:08:45.483Z,60.74
2022-12-18T21:11:36.281Z,61.00
2022-12-18T21:14:05.105Z,60.90
2022-12-18T21:16:32.062Z,60.68
2022-12-18T21:18:58.767Z,60.80
2022-12-18T21:21:26.910Z,60.84
2022-12-18T21:23:53.994Z,60.91
2022-12-18T21:26:27.223Z,61.45
2022-12-18T21:28:55.803Z,60.81
2022-12-18T21:31:23.901Z,61.42
2022-12-18T21:33:50.599Z,61.12
2022-12-18T21:36:19.643Z,61.04
2022-12-18T21:38:46.165Z,61.05
2022-12-18T21:41:37.452Z,61.09
2022-12-18T21:44:10.610Z,61.47
2022-12-18T21:46:43.024Z,61.35
2022-12-18T21:49:10.754Z,61.77
2022-12-18T21:51:37.462Z,61.88
2022-12-18T21:54:04.379Z,61.50
2022-12-18T21:56:46.827Z,62.03
2022-12-18T21:59:19.225Z,61.52
2022-12-18T22:01:46.543Z,62.32
2022-12-18T22:04:14.034Z,62.32
2022-12-18T22:06:42.523Z,61.65
2022-12-18T22:09:10.704Z,61.25
2022-12-18T22:11:37.307Z,61.16
2022-12-18T22:14:04.071Z,61.96
2022-12-18T22:16:30.513Z,61.93
2022-12-18T22:18:56.881Z,62.30
2022-12-18T22:21:31.929Z,62.25
2022-12-18T22:24:02.566Z,61.70
2022-12-18T22:26:33.888Z,62.00
2022-12-18T22:29:24.254Z,61.80
2022-12-18T22:31:50.782Z,62.04
2022-12-18T22:34:21.919Z,61.77
2022-12-18T22:36:49.377Z,61.90
2022-12-18T22:39:21.892Z,61.76
2022-12-18T22:41:48.850Z,61.80
2022-12-18T22:44:17.533Z,61.69
2022-12-18T22:46:56.211Z,61.51
2022-12-18T22:49:33.893Z,61.60
2022-12-18T22:52:02.557Z,60.83
2022-12-18T22:54:28.960Z,61.55
2022-12-18T22:56:55.495Z,61.57
2022-12-18T22:59:23.255Z,61.21
2022-12-18T23:01:51.459Z,61.82
2022-12-18T23:04:28.384Z,61.37
2022-12-18T23:06:58.715Z,61.11
2022-12-18T23:09:25.115Z,60.87
2022-12-18T23:11:51.558Z,61.02
2022-12-18T23:14:17.936Z,61.54
2022-12-18T23:16:44.560Z,61.62
2022-12-18T23:19:13.053Z,60.79
2022-12-18T23:21:39.573Z,61.15
2022-12-18T23:24:06.315Z,61.25
2022-12-18T23:26:32.843Z,61.44
2022-12-18T23:29:01.571Z,60.89
2022-12-18T23:31:30.899Z,61.52
2022-12-18T23:33:59.001Z,61.37
2022-12-18T23:36:26.010Z,61.71
2022-12-18T23:38:54.742Z,61.54
2022-12-18T23:41:23.184Z,61.86
2022-12-18T23:43:49.906Z,62.06
2022-12-18T23:46:22.004Z,61.17
2022-12-18T23:48:49.681Z,61.74
2022-12-18T23:51:19.319Z,61.78
2022-12-18T23:53:46.144Z,61.45
2022-12-18T23:56:13.852Z,61.83
2022-12-18T23:58:41.270Z,61.53
